Terminal Aerodrome Forecast
Issued by NWS Knoxville/Tri Cities, TN

Home | Current Version | Previous Version | Text Only | Print | Product List | Glossary On
Versions: 1 2 3 4 5 6 7 8 9 10 11 12 13 14 15 16 17 18 19
000
FTUS44 KMRX 171131
TAFTRI
TAF
KTRI 171131Z 1712/1812 VRB04KT P6SM SCT250
     FM180500 00000KT P6SM OVC200=

USA.gov is the U.S. government's official web portal to all federal, state and local government web resources and services.